Grandview, Texas
Current Conditions -  °F | °C
As of 9:55 AM on Friday 21 Nov 2014 (Local Time) from KINJ Reporting Station
Haze Haze  
Wind Chill: 62°   Ceiling: 200
Heat Index: 62°   Visibility: 1.2mi
Dew Point: 61°   Wind: 10mph
Humidity: 94%   Direction: 120°ESE
Pressure: 30.13"   Gusts: NA
Location:  32.27°N, 97.18°W
Report Text: KINJ 211555Z AUTO 12009KT 1 1/4SM BR OVC002 17/16 A3013 RMK AO2 T01680159
Loading
Personal Weather Stations






























Interactive Weather Map New forecast layout! Learn more

10-Day Weather Forecast

Advertisements
Track Severe Weather on mobile